sensor_id;sensor_type;location;lat;lon;timestamp;P1;durP1;ratioP1;P2;durP2;ratioP2
3819;SDS011;1925;51.356;9.530;2023-04-24T00:02:14;1.40;;;1.00;;
3819;SDS011;1925;51.356;9.530;2023-04-24T00:04:41;1.02;;;0.90;;
3819;SDS011;1925;51.356;9.530;2023-04-24T00:07:09;1.20;;;1.00;;
3819;SDS011;1925;51.356;9.530;2023-04-24T00:09:35;2.83;;;0.90;;
3819;SDS011;1925;51.356;9.530;2023-04-24T00:12:01;1.30;;;1.00;;
3819;SDS011;1925;51.356;9.530;2023-04-24T00:14:29;1.55;;;1.00;;
3819;SDS011;1925;51.356;9.530;2023-04-24T00:16:55;1.55;;;1.20;;
3819;SDS011;1925;51.356;9.530;2023-04-24T00:19:21;1.30;;;0.90;;
3819;SDS011;1925;51.356;9.530;2023-04-24T00:21:47;1.58;;;1.10;;
3819;SDS011;1925;51.356;9.530;2023-04-24T00:24:16;2.75;;;0.80;;
3819;SDS011;1925;51.356;9.530;2023-04-24T00:26:43;1.10;;;1.00;;
3819;SDS011;1925;51.356;9.530;2023-04-24T00:29:09;0.98;;;0.80;;
3819;SDS011;1925;51.356;9.530;2023-04-24T00:31:35;1.20;;;0.93;;
3819;SDS011;1925;51.356;9.530;2023-04-24T00:34:01;0.80;;;0.70;;
3819;SDS011;1925;51.356;9.530;2023-04-24T00:36:27;1.88;;;1.05;;
3819;SDS011;1925;51.356;9.530;2023-04-24T00:38:53;2.10;;;0.80;;
3819;SDS011;1925;51.356;9.530;2023-04-24T00:41:19;1.35;;;0.90;;
3819;SDS011;1925;51.356;9.530;2023-04-24T00:43:45;1.05;;;0.80;;
3819;SDS011;1925;51.356;9.530;2023-04-24T00:46:12;1.73;;;0.93;;
3819;SDS011;1925;51.356;9.530;2023-04-24T00:48:41;1.73;;;1.00;;
3819;SDS011;1925;51.356;9.530;2023-04-24T00:51:07;1.33;;;1.00;;
3819;SDS011;1925;51.356;9.530;2023-04-24T00:53:33;2.72;;;1.10;;
3819;SDS011;1925;51.356;9.530;2023-04-24T00:55:59;5.07;;;0.97;;
3819;SDS011;1925;51.356;9.530;2023-04-24T00:58:25;1.53;;;1.10;;
3819;SDS011;1925;51.356;9.530;2023-04-24T01:00:51;2.15;;;0.80;;
3819;SDS011;1925;51.356;9.530;2023-04-24T01:03:21;3.80;;;1.23;;
3819;SDS011;1925;51.356;9.530;2023-04-24T01:05:48;1.25;;;0.95;;
3819;SDS011;1925;51.356;9.530;2023-04-24T01:08:15;2.17;;;1.17;;
3819;SDS011;1925;51.356;9.530;2023-04-24T01:10:41;1.65;;;1.15;;
3819;SDS011;1925;51.356;9.530;2023-04-24T01:13:09;1.40;;;1.10;;
3819;SDS011;1925;51.356;9.530;2023-04-24T01:15:36;2.55;;;1.20;;
3819;SDS011;1925;51.356;9.530;2023-04-24T01:18:02;1.08;;;0.90;;
3819;SDS011;1925;51.356;9.530;2023-04-24T01:20:28;3.63;;;0.90;;
3819;SDS011;1925;51.356;9.530;2023-04-24T01:22:56;1.40;;;1.00;;
3819;SDS011;1925;51.356;9.530;2023-04-24T01:25:23;2.67;;;0.80;;
3819;SDS011;1925;51.356;9.530;2023-04-24T01:27:50;1.33;;;1.23;;
3819;SDS011;1925;51.356;9.530;2023-04-24T01:30:17;1.05;;;0.77;;
3819;SDS011;1925;51.356;9.530;2023-04-24T01:32:43;1.00;;;0.80;;
3819;SDS011;1925;51.356;9.530;2023-04-24T01:35:10;1.58;;;0.90;;
3819;SDS011;1925;51.356;9.530;2023-04-24T01:37:36;0.90;;;0.70;;
3819;SDS011;1925;51.356;9.530;2023-04-24T01:40:03;1.30;;;0.90;;
3819;SDS011;1925;51.356;9.530;2023-04-24T01:42:29;0.80;;;0.60;;
3819;SDS011;1925;51.356;9.530;2023-04-24T01:44:56;1.13;;;0.70;;
3819;SDS011;1925;51.356;9.530;2023-04-24T01:47:22;2.70;;;1.25;;
3819;SDS011;1925;51.356;9.530;2023-04-24T01:49:49;1.08;;;0.90;;
3819;SDS011;1925;51.356;9.530;2023-04-24T01:52:15;2.38;;;1.33;;
3819;SDS011;1925;51.356;9.530;2023-04-24T01:54:42;4.97;;;1.08;;
3819;SDS011;1925;51.356;9.530;2023-04-24T01:57:08;1.60;;;1.10;;
3819;SDS011;1925;51.356;9.530;2023-04-24T01:59:34;0.90;;;0.70;;
3819;SDS011;1925;51.356;9.530;2023-04-24T02:02:01;2.28;;;1.00;;
3819;SDS011;1925;51.356;9.530;2023-04-24T02:04:27;0.90;;;0.80;;
3819;SDS011;1925;51.356;9.530;2023-04-24T02:06:53;2.13;;;1.20;;
3819;SDS011;1925;51.356;9.530;2023-04-24T02:09:19;1.48;;;1.10;;
3819;SDS011;1925;51.356;9.530;2023-04-24T02:11:45;1.30;;;1.10;;
3819;SDS011;1925;51.356;9.530;2023-04-24T02:14:11;1.47;;;1.20;;
3819;SDS011;1925;51.356;9.530;2023-04-24T02:16:37;1.95;;;1.30;;
3819;SDS011;1925;51.356;9.530;2023-04-24T02:19:03;2.60;;;1.23;;
3819;SDS011;1925;51.356;9.530;2023-04-24T02:21:29;1.48;;;1.20;;
3819;SDS011;1925;51.356;9.530;2023-04-24T02:23:56;2.03;;;1.40;;
3819;SDS011;1925;51.356;9.530;2023-04-24T02:26:22;1.30;;;1.20;;
3819;SDS011;1925;51.356;9.530;2023-04-24T02:28:48;3.65;;;1.10;;
3819;SDS011;1925;51.356;9.530;2023-04-24T02:31:14;1.10;;;1.00;;
3819;SDS011;1925;51.356;9.530;2023-04-24T02:33:40;1.20;;;1.10;;
3819;SDS011;1925;51.356;9.530;2023-04-24T02:36:06;4.23;;;1.20;;
3819;SDS011;1925;51.356;9.530;2023-04-24T02:38:32;1.83;;;1.30;;
3819;SDS011;1925;51.356;9.530;2023-04-24T02:40:58;2.37;;;1.40;;
3819;SDS011;1925;51.356;9.530;2023-04-24T02:43:24;1.50;;;1.20;;
3819;SDS011;1925;51.356;9.530;2023-04-24T02:45:50;2.65;;;1.73;;
3819;SDS011;1925;51.356;9.530;2023-04-24T02:48:16;2.25;;;1.30;;
3819;SDS011;1925;51.356;9.530;2023-04-24T02:50:42;1.30;;;1.02;;
3819;SDS011;1925;51.356;9.530;2023-04-24T02:53:08;4.50;;;1.47;;
3819;SDS011;1925;51.356;9.530;2023-04-24T02:55:34;1.20;;;1.10;;
3819;SDS011;1925;51.356;9.530;2023-04-24T02:58:00;1.75;;;1.45;;
3819;SDS011;1925;51.356;9.530;2023-04-24T03:00:26;2.27;;;0.93;;
3819;SDS011;1925;51.356;9.530;2023-04-24T03:02:52;2.40;;;1.10;;
3819;SDS011;1925;51.356;9.530;2023-04-24T03:05:18;3.17;;;1.87;;
3819;SDS011;1925;51.356;9.530;2023-04-24T03:07:44;1.30;;;0.80;;
3819;SDS011;1925;51.356;9.530;2023-04-24T03:10:10;1.43;;;1.17;;
3819;SDS011;1925;51.356;9.530;2023-04-24T03:12:36;1.30;;;1.20;;
3819;SDS011;1925;51.356;9.530;2023-04-24T03:15:02;4.10;;;1.30;;
3819;SDS011;1925;51.356;9.530;2023-04-24T03:17:28;2.78;;;1.25;;
3819;SDS011;1925;51.356;9.530;2023-04-24T03:19:54;3.20;;;1.38;;
3819;SDS011;1925;51.356;9.530;2023-04-24T03:22:20;3.87;;;1.63;;
3819;SDS011;1925;51.356;9.530;2023-04-24T03:24:46;1.30;;;1.10;;
3819;SDS011;1925;51.356;9.530;2023-04-24T03:27:12;1.30;;;1.03;;
3819;SDS011;1925;51.356;9.530;2023-04-24T03:29:38;1.20;;;1.10;;
3819;SDS011;1925;51.356;9.530;2023-04-24T03:32:04;4.53;;;0.98;;
3819;SDS011;1925;51.356;9.530;2023-04-24T03:34:30;2.10;;;1.27;;
3819;SDS011;1925;51.356;9.530;2023-04-24T03:36:56;1.27;;;0.90;;
3819;SDS011;1925;51.356;9.530;2023-04-24T03:39:22;2.28;;;1.10;;
3819;SDS011;1925;51.356;9.530;2023-04-24T03:41:50;3.67;;;1.50;;
3819;SDS011;1925;51.356;9.530;2023-04-24T03:44:16;2.10;;;1.27;;
3819;SDS011;1925;51.356;9.530;2023-04-24T03:46:41;1.90;;;1.20;;
3819;SDS011;1925;51.356;9.530;2023-04-24T03:49:07;2.17;;;1.23;;
3819;SDS011;1925;51.356;9.530;2023-04-24T03:51:33;2.10;;;1.40;;
3819;SDS011;1925;51.356;9.530;2023-04-24T03:54:00;2.70;;;1.40;;
3819;SDS011;1925;51.356;9.530;2023-04-24T03:56:26;2.13;;;1.53;;
3819;SDS011;1925;51.356;9.530;2023-04-24T03:58:52;2.10;;;1.53;;
3819;SDS011;1925;51.356;9.530;2023-04-24T04:01:18;2.10;;;1.27;;
3819;SDS011;1925;51.356;9.530;2023-04-24T04:03:45;1.45;;;1.05;;
3819;SDS011;1925;51.356;9.530;2023-04-24T04:06:11;1.75;;;1.65;;
3819;SDS011;1925;51.356;9.530;2023-04-24T04:08:38;2.08;;;1.40;;
3819;SDS011;1925;51.356;9.530;2023-04-24T04:11:04;1.90;;;1.50;;
3819;SDS011;1925;51.356;9.530;2023-04-24T04:13:29;2.13;;;1.17;;
3819;SDS011;1925;51.356;9.530;2023-04-24T04:15:56;2.22;;;1.20;;
3819;SDS011;1925;51.356;9.530;2023-04-24T04:18:21;3.03;;;1.00;;
3819;SDS011;1925;51.356;9.530;2023-04-24T04:20:47;1.60;;;1.20;;
3819;SDS011;1925;51.356;9.530;2023-04-24T04:23:13;1.17;;;1.07;;
3819;SDS011;1925;51.356;9.530;2023-04-24T04:25:39;2.00;;;1.00;;
3819;SDS011;1925;51.356;9.530;2023-04-24T04:28:05;7.50;;;1.20;;
3819;SDS011;1925;51.356;9.530;2023-04-24T04:30:31;1.70;;;1.20;;
3819;SDS011;1925;51.356;9.530;2023-04-24T04:32:57;2.87;;;1.30;;
3819;SDS011;1925;51.356;9.530;2023-04-24T04:35:24;1.88;;;1.10;;
3819;SDS011;1925;51.356;9.530;2023-04-24T04:37:50;1.40;;;1.30;;
3819;SDS011;1925;51.356;9.530;2023-04-24T04:40:16;2.35;;;1.50;;
3819;SDS011;1925;51.356;9.530;2023-04-24T04:42:42;2.03;;;1.50;;
3819;SDS011;1925;51.356;9.530;2023-04-24T04:45:11;2.75;;;1.40;;
3819;SDS011;1925;51.356;9.530;2023-04-24T04:47:37;1.65;;;1.35;;
3819;SDS011;1925;51.356;9.530;2023-04-24T04:50:04;1.17;;;1.00;;
3819;SDS011;1925;51.356;9.530;2023-04-24T04:52:30;1.35;;;1.15;;
3819;SDS011;1925;51.356;9.530;2023-04-24T04:54:56;1.30;;;1.00;;
3819;SDS011;1925;51.356;9.530;2023-04-24T04:57:22;5.40;;;2.17;;
3819;SDS011;1925;51.356;9.530;2023-04-24T04:59:48;2.77;;;1.33;;
3819;SDS011;1925;51.356;9.530;2023-04-24T05:02:14;2.65;;;1.80;;
3819;SDS011;1925;51.356;9.530;2023-04-24T05:04:40;2.40;;;1.50;;
3819;SDS011;1925;51.356;9.530;2023-04-24T05:07:06;1.87;;;0.90;;
3819;SDS011;1925;51.356;9.530;2023-04-24T05:09:32;2.80;;;1.07;;
3819;SDS011;1925;51.356;9.530;2023-04-24T05:11:58;1.63;;;1.30;;
3819;SDS011;1925;51.356;9.530;2023-04-24T05:14:24;2.10;;;1.33;;
3819;SDS011;1925;51.356;9.530;2023-04-24T05:16:50;2.37;;;1.30;;
3819;SDS011;1925;51.356;9.530;2023-04-24T05:19:16;1.53;;;1.00;;
3819;SDS011;1925;51.356;9.530;2023-04-24T05:21:42;1.33;;;1.23;;
3819;SDS011;1925;51.356;9.530;2023-04-24T05:24:08;1.63;;;1.00;;
3819;SDS011;1925;51.356;9.530;2023-04-24T05:26:34;1.33;;;1.23;;
3819;SDS011;1925;51.356;9.530;2023-04-24T05:29:00;1.60;;;1.50;;
3819;SDS011;1925;51.356;9.530;2023-04-24T05:31:27;3.40;;;1.40;;
3819;SDS011;1925;51.356;9.530;2023-04-24T05:33:53;2.03;;;1.73;;
3819;SDS011;1925;51.356;9.530;2023-04-24T05:36:19;6.30;;;1.50;;
3819;SDS011;1925;51.356;9.530;2023-04-24T05:38:44;1.30;;;1.00;;
3819;SDS011;1925;51.356;9.530;2023-04-24T05:41:10;1.50;;;1.37;;
3819;SDS011;1925;51.356;9.530;2023-04-24T05:43:36;1.50;;;1.30;;
3819;SDS011;1925;51.356;9.530;2023-04-24T05:46:02;2.53;;;1.30;;
3819;SDS011;1925;51.356;9.530;2023-04-24T05:48:28;1.70;;;1.27;;
3819;SDS011;1925;51.356;9.530;2023-04-24T05:50:55;2.38;;;1.77;;
3819;SDS011;1925;51.356;9.530;2023-04-24T05:53:20;1.30;;;1.20;;
3819;SDS011;1925;51.356;9.530;2023-04-24T05:55:46;1.83;;;1.53;;
3819;SDS011;1925;51.356;9.530;2023-04-24T05:58:12;1.40;;;1.30;;
3819;SDS011;1925;51.356;9.530;2023-04-24T06:00:39;1.70;;;1.50;;
3819;SDS011;1925;51.356;9.530;2023-04-24T06:03:07;2.08;;;1.25;;
3819;SDS011;1925;51.356;9.530;2023-04-24T06:05:33;2.35;;;1.38;;
3819;SDS011;1925;51.356;9.530;2023-04-24T06:08:00;1.98;;;1.77;;
3819;SDS011;1925;51.356;9.530;2023-04-24T06:10:26;2.00;;;1.80;;
3819;SDS011;1925;51.356;9.530;2023-04-24T06:12:52;2.15;;;2.05;;
3819;SDS011;1925;51.356;9.530;2023-04-24T06:15:21;4.07;;;3.15;;
3819;SDS011;1925;51.356;9.530;2023-04-24T06:17:47;2.10;;;1.90;;
3819;SDS011;1925;51.356;9.530;2023-04-24T06:20:13;2.75;;;2.28;;
3819;SDS011;1925;51.356;9.530;2023-04-24T06:22:39;3.65;;;2.55;;
3819;SDS011;1925;51.356;9.530;2023-04-24T06:25:05;3.17;;;2.07;;
3819;SDS011;1925;51.356;9.530;2023-04-24T06:27:32;5.20;;;2.50;;
3819;SDS011;1925;51.356;9.530;2023-04-24T06:29:58;4.82;;;2.50;;
3819;SDS011;1925;51.356;9.530;2023-04-24T06:32:24;2.73;;;2.40;;
3819;SDS011;1925;51.356;9.530;2023-04-24T06:34:51;2.65;;;2.45;;
3819;SDS011;1925;51.356;9.530;2023-04-24T06:37:18;3.65;;;2.85;;
3819;SDS011;1925;51.356;9.530;2023-04-24T06:39:44;2.65;;;2.45;;
3819;SDS011;1925;51.356;9.530;2023-04-24T06:42:10;3.55;;;2.95;;
3819;SDS011;1925;51.356;9.530;2023-04-24T06:44:36;3.80;;;2.80;;
3819;SDS011;1925;51.356;9.530;2023-04-24T06:47:06;3.85;;;3.15;;
3819;SDS011;1925;51.356;9.530;2023-04-24T06:49:32;5.20;;;3.13;;
3819;SDS011;1925;51.356;9.530;2023-04-24T06:51:58;3.30;;;2.70;;
3819;SDS011;1925;51.356;9.530;2023-04-24T06:54:24;3.87;;;3.50;;
3819;SDS011;1925;51.356;9.530;2023-04-24T06:56:50;3.63;;;3.33;;
3819;SDS011;1925;51.356;9.530;2023-04-24T06:59:17;3.50;;;3.20;;
3819;SDS011;1925;51.356;9.530;2023-04-24T07:01:43;3.40;;;3.10;;
3819;SDS011;1925;51.356;9.530;2023-04-24T07:04:08;2.90;;;2.50;;
3819;SDS011;1925;51.356;9.530;2023-04-24T07:06:34;2.97;;;2.77;;
3819;SDS011;1925;51.356;9.530;2023-04-24T07:09:00;3.20;;;2.90;;
3819;SDS011;1925;51.356;9.530;2023-04-24T07:11:28;3.60;;;3.17;;
3819;SDS011;1925;51.356;9.530;2023-04-24T07:13:54;3.10;;;2.80;;
3819;SDS011;1925;51.356;9.530;2023-04-24T07:16:20;4.40;;;2.60;;
3819;SDS011;1925;51.356;9.530;2023-04-24T07:18:46;3.67;;;3.10;;
3819;SDS011;1925;51.356;9.530;2023-04-24T07:21:12;2.87;;;2.60;;
3819;SDS011;1925;51.356;9.530;2023-04-24T07:23:38;3.37;;;2.87;;
3819;SDS011;1925;51.356;9.530;2023-04-24T07:26:06;3.97;;;2.70;;
3819;SDS011;1925;51.356;9.530;2023-04-24T07:28:32;4.10;;;2.87;;
3819;SDS011;1925;51.356;9.530;2023-04-24T07:30:58;3.20;;;2.90;;
3819;SDS011;1925;51.356;9.530;2023-04-24T07:33:24;5.07;;;2.58;;
3819;SDS011;1925;51.356;9.530;2023-04-24T07:35:50;2.47;;;1.75;;
3819;SDS011;1925;51.356;9.530;2023-04-24T07:38:17;2.53;;;2.17;;
3819;SDS011;1925;51.356;9.530;2023-04-24T07:40:46;2.38;;;2.17;;
3819;SDS011;1925;51.356;9.530;2023-04-24T07:43:12;2.00;;;1.80;;
3819;SDS011;1925;51.356;9.530;2023-04-24T07:45:39;4.33;;;1.97;;
3819;SDS011;1925;51.356;9.530;2023-04-24T07:48:05;3.13;;;2.45;;
3819;SDS011;1925;51.356;9.530;2023-04-24T07:50:31;2.08;;;1.90;;
3819;SDS011;1925;51.356;9.530;2023-04-24T07:52:57;2.20;;;2.00;;
3819;SDS011;1925;51.356;9.530;2023-04-24T07:55:23;3.75;;;2.28;;
3819;SDS011;1925;51.356;9.530;2023-04-24T07:57:49;3.83;;;1.80;;
3819;SDS011;1925;51.356;9.530;2023-04-24T08:00:15;2.63;;;2.25;;
3819;SDS011;1925;51.356;9.530;2023-04-24T08:02:41;3.03;;;2.63;;
3819;SDS011;1925;51.356;9.530;2023-04-24T08:05:07;5.70;;;2.80;;
3819;SDS011;1925;51.356;9.530;2023-04-24T08:07:33;3.10;;;2.80;;
3819;SDS011;1925;51.356;9.530;2023-04-24T08:10:00;2.80;;;2.60;;
3819;SDS011;1925;51.356;9.530;2023-04-24T08:12:27;3.70;;;3.33;;
3819;SDS011;1925;51.356;9.530;2023-04-24T08:14:54;3.17;;;2.88;;
3819;SDS011;1925;51.356;9.530;2023-04-24T08:17:20;3.47;;;2.50;;
3819;SDS011;1925;51.356;9.530;2023-04-24T08:19:45;2.50;;;2.30;;
3819;SDS011;1925;51.356;9.530;2023-04-24T08:22:16;2.90;;;2.10;;
3819;SDS011;1925;51.356;9.530;2023-04-24T08:24:42;3.43;;;3.07;;
3819;SDS011;1925;51.356;9.530;2023-04-24T08:27:08;2.78;;;2.58;;
3819;SDS011;1925;51.356;9.530;2023-04-24T08:29:35;2.85;;;2.47;;
3819;SDS011;1925;51.356;9.530;2023-04-24T08:32:01;4.55;;;2.35;;
3819;SDS011;1925;51.356;9.530;2023-04-24T08:34:27;3.10;;;2.67;;
3819;SDS011;1925;51.356;9.530;2023-04-24T08:36:53;3.43;;;2.60;;
3819;SDS011;1925;51.356;9.530;2023-04-24T08:39:19;3.05;;;2.75;;
3819;SDS011;1925;51.356;9.530;2023-04-24T08:41:45;3.33;;;3.03;;
3819;SDS011;1925;51.356;9.530;2023-04-24T08:44:14;4.32;;;2.42;;
3819;SDS011;1925;51.356;9.530;2023-04-24T08:46:41;3.15;;;2.85;;
3819;SDS011;1925;51.356;9.530;2023-04-24T08:49:08;3.25;;;2.63;;
3819;SDS011;1925;51.356;9.530;2023-04-24T08:51:35;3.63;;;2.40;;
3819;SDS011;1925;51.356;9.530;2023-04-24T08:54:02;5.43;;;3.05;;
3819;SDS011;1925;51.356;9.530;2023-04-24T08:56:29;2.60;;;2.40;;
3819;SDS011;1925;51.356;9.530;2023-04-24T08:58:55;3.40;;;2.97;;
3819;SDS011;1925;51.356;9.530;2023-04-24T09:01:22;3.85;;;2.58;;
3819;SDS011;1925;51.356;9.530;2023-04-24T09:03:49;2.85;;;2.42;;
3819;SDS011;1925;51.356;9.530;2023-04-24T09:06:16;3.95;;;2.28;;
3819;SDS011;1925;51.356;9.530;2023-04-24T09:08:43;4.90;;;3.10;;
3819;SDS011;1925;51.356;9.530;2023-04-24T09:11:09;3.65;;;2.30;;
3819;SDS011;1925;51.356;9.530;2023-04-24T09:13:35;2.70;;;2.50;;
3819;SDS011;1925;51.356;9.530;2023-04-24T09:16:02;3.42;;;2.13;;
3819;SDS011;1925;51.356;9.530;2023-04-24T09:18:28;2.90;;;2.30;;
3819;SDS011;1925;51.356;9.530;2023-04-24T09:20:58;2.85;;;1.92;;
3819;SDS011;1925;51.356;9.530;2023-04-24T09:23:26;2.45;;;2.22;;
3819;SDS011;1925;51.356;9.530;2023-04-24T09:25:54;2.10;;;1.90;;
3819;SDS011;1925;51.356;9.530;2023-04-24T09:28:22;4.72;;;2.22;;
3819;SDS011;1925;51.356;9.530;2023-04-24T09:31:01;2.78;;;2.25;;
3819;SDS011;1925;51.356;9.530;2023-04-24T09:33:27;3.05;;;2.38;;
3819;SDS011;1925;51.356;9.530;2023-04-24T09:35:53;2.53;;;2.33;;
3819;SDS011;1925;51.356;9.530;2023-04-24T09:38:20;4.28;;;2.10;;
3819;SDS011;1925;51.356;9.530;2023-04-24T09:40:58;2.72;;;2.50;;
3819;SDS011;1925;51.356;9.530;2023-04-24T09:43:25;2.72;;;2.50;;
3819;SDS011;1925;51.356;9.530;2023-04-24T09:45:52;3.92;;;2.75;;
3819;SDS011;1925;51.356;9.530;2023-04-24T09:48:29;6.63;;;3.35;;
3819;SDS011;1925;51.356;9.530;2023-04-24T09:50:56;2.65;;;2.17;;
3819;SDS011;1925;51.356;9.530;2023-04-24T09:53:23;2.30;;;1.90;;
3819;SDS011;1925;51.356;9.530;2023-04-24T09:55:49;2.55;;;2.35;;
3819;SDS011;1925;51.356;9.530;2023-04-24T09:58:15;2.87;;;2.43;;
3819;SDS011;1925;51.356;9.530;2023-04-24T10:00:41;2.10;;;1.87;;
3819;SDS011;1925;51.356;9.530;2023-04-24T10:03:07;2.03;;;1.80;;
3819;SDS011;1925;51.356;9.530;2023-04-24T10:05:36;3.07;;;2.03;;
3819;SDS011;1925;51.356;9.530;2023-04-24T10:08:10;4.78;;;1.55;;
3819;SDS011;1925;51.356;9.530;2023-04-24T10:10:42;3.17;;;2.00;;
3819;SDS011;1925;51.356;9.530;2023-04-24T10:13:09;4.95;;;1.52;;
3819;SDS011;1925;51.356;9.530;2023-04-24T10:15:35;2.30;;;2.10;;
3819;SDS011;1925;51.356;9.530;2023-04-24T10:18:02;2.30;;;1.73;;
3819;SDS011;1925;51.356;9.530;2023-04-24T10:20:30;2.50;;;1.85;;
3819;SDS011;1925;51.356;9.530;2023-04-24T10:22:56;2.33;;;1.77;;
3819;SDS011;1925;51.356;9.530;2023-04-24T10:25:23;1.55;;;1.15;;
3819;SDS011;1925;51.356;9.530;2023-04-24T10:27:50;1.50;;;1.40;;
3819;SDS011;1925;51.356;9.530;2023-04-24T10:30:17;1.10;;;1.00;;
3819;SDS011;1925;51.356;9.530;2023-04-24T10:32:43;1.90;;;1.35;;
3819;SDS011;1925;51.356;9.530;2023-04-24T10:35:10;1.35;;;1.20;;
3819;SDS011;1925;51.356;9.530;2023-04-24T10:37:38;2.63;;;1.65;;
3819;SDS011;1925;51.356;9.530;2023-04-24T10:40:05;1.58;;;1.33;;
3819;SDS011;1925;51.356;9.530;2023-04-24T10:42:32;2.25;;;1.42;;
3819;SDS011;1925;51.356;9.530;2023-04-24T10:44:58;2.27;;;2.07;;
3819;SDS011;1925;51.356;9.530;2023-04-24T10:47:27;2.25;;;2.05;;
3819;SDS011;1925;51.356;9.530;2023-04-24T10:49:52;1.97;;;1.80;;
3819;SDS011;1925;51.356;9.530;2023-04-24T10:52:18;1.47;;;1.33;;
3819;SDS011;1925;51.356;9.530;2023-04-24T10:54:45;1.80;;;1.70;;
3819;SDS011;1925;51.356;9.530;2023-04-24T10:59:48;1.52;;;1.20;;
3819;SDS011;1925;51.356;9.530;2023-04-24T11:02:14;1.63;;;1.30;;
3819;SDS011;1925;51.356;9.530;2023-04-24T11:04:40;1.88;;;0.90;;
3819;SDS011;1925;51.356;9.530;2023-04-24T11:07:13;2.20;;;1.50;;
3819;SDS011;1925;51.356;9.530;2023-04-24T11:09:39;2.20;;;1.63;;
3819;SDS011;1925;51.356;9.530;2023-04-24T11:12:09;2.05;;;1.85;;
3819;SDS011;1925;51.356;9.530;2023-04-24T11:17:36;2.65;;;1.60;;
3819;SDS011;1925;51.356;9.530;2023-04-24T11:22:32;1.70;;;1.30;;
3819;SDS011;1925;51.356;9.530;2023-04-24T11:25:00;1.80;;;1.23;;
3819;SDS011;1925;51.356;9.530;2023-04-24T11:27:29;1.38;;;0.90;;
3819;SDS011;1925;51.356;9.530;2023-04-24T11:34:56;0.60;;;0.40;;
3819;SDS011;1925;51.356;9.530;2023-04-24T11:37:23;0.60;;;0.40;;
3819;SDS011;1925;51.356;9.530;2023-04-24T11:39:50;0.70;;;0.50;;
3819;SDS011;1925;51.356;9.530;2023-04-24T11:42:16;0.70;;;0.40;;
3819;SDS011;1925;51.356;9.530;2023-04-24T11:44:42;0.60;;;0.40;;
3819;SDS011;1925;51.356;9.530;2023-04-24T11:47:08;0.60;;;0.40;;
3819;SDS011;1925;51.356;9.530;2023-04-24T11:49:37;1.83;;;0.50;;
3819;SDS011;1925;51.356;9.530;2023-04-24T11:52:04;0.60;;;0.40;;
3819;SDS011;1925;51.356;9.530;2023-04-24T11:54:30;0.98;;;0.50;;
3819;SDS011;1925;51.356;9.530;2023-04-24T11:56:56;0.70;;;0.40;;
3819;SDS011;1925;51.356;9.530;2023-04-24T11:59:23;0.90;;;0.40;;
3819;SDS011;1925;51.356;9.530;2023-04-24T12:01:49;1.00;;;0.43;;
3819;SDS011;1925;51.356;9.530;2023-04-24T12:04:16;0.80;;;0.63;;
3819;SDS011;1925;51.356;9.530;2023-04-24T12:07:01;0.60;;;0.40;;
3819;SDS011;1925;51.356;9.530;2023-04-24T12:09:27;0.60;;;0.40;;
3819;SDS011;1925;51.356;9.530;2023-04-24T12:11:54;0.70;;;0.50;;
3819;SDS011;1925;51.356;9.530;2023-04-24T12:14:23;0.90;;;0.60;;
3819;SDS011;1925;51.356;9.530;2023-04-24T12:16:52;0.70;;;0.40;;
3819;SDS011;1925;51.356;9.530;2023-04-24T12:19:20;0.70;;;0.50;;
3819;SDS011;1925;51.356;9.530;2023-04-24T12:21:58;0.60;;;0.40;;
3819;SDS011;1925;51.356;9.530;2023-04-24T12:24:24;0.80;;;0.60;;
3819;SDS011;1925;51.356;9.530;2023-04-24T12:26:50;0.60;;;0.40;;
3819;SDS011;1925;51.356;9.530;2023-04-24T12:29:21;1.10;;;0.60;;
3819;SDS011;1925;51.356;9.530;2023-04-24T12:31:47;0.80;;;0.40;;
3819;SDS011;1925;51.356;9.530;2023-04-24T12:34:19;0.63;;;0.40;;
3819;SDS011;1925;51.356;9.530;2023-04-24T12:36:46;0.70;;;0.40;;
3819;SDS011;1925;51.356;9.530;2023-04-24T12:39:15;0.90;;;0.50;;
3819;SDS011;1925;51.356;9.530;2023-04-24T12:41:57;1.00;;;0.70;;
3819;SDS011;1925;51.356;9.530;2023-04-24T12:44:34;5.38;;;0.50;;
3819;SDS011;1925;51.356;9.530;2023-04-24T12:47:01;2.75;;;0.50;;
3819;SDS011;1925;51.356;9.530;2023-04-24T12:49:29;1.20;;;0.90;;
3819;SDS011;1925;51.356;9.530;2023-04-24T12:51:55;0.70;;;0.50;;
3819;SDS011;1925;51.356;9.530;2023-04-24T12:54:22;1.33;;;0.40;;
3819;SDS011;1925;51.356;9.530;2023-04-24T12:56:48;0.75;;;0.40;;
3819;SDS011;1925;51.356;9.530;2023-04-24T12:59:14;0.63;;;0.40;;
3819;SDS011;1925;51.356;9.530;2023-04-24T13:01:40;0.70;;;0.60;;
3819;SDS011;1925;51.356;9.530;2023-04-24T13:04:06;0.90;;;0.50;;
3819;SDS011;1925;51.356;9.530;2023-04-24T13:06:32;0.60;;;0.40;;
3819;SDS011;1925;51.356;9.530;2023-04-24T13:08:58;0.70;;;0.40;;
3819;SDS011;1925;51.356;9.530;2023-04-24T13:11:24;0.70;;;0.50;;
3819;SDS011;1925;51.356;9.530;2023-04-24T13:13:50;0.80;;;0.40;;
3819;SDS011;1925;51.356;9.530;2023-04-24T13:16:16;3.60;;;0.40;;
3819;SDS011;1925;51.356;9.530;2023-04-24T13:18:42;0.80;;;0.50;;
3819;SDS011;1925;51.356;9.530;2023-04-24T13:21:08;2.00;;;0.40;;
3819;SDS011;1925;51.356;9.530;2023-04-24T13:23:34;0.60;;;0.40;;
3819;SDS011;1925;51.356;9.530;2023-04-24T13:26:00;0.68;;;0.50;;
3819;SDS011;1925;51.356;9.530;2023-04-24T13:28:26;0.70;;;0.50;;
3819;SDS011;1925;51.356;9.530;2023-04-24T13:30:52;0.90;;;0.50;;
3819;SDS011;1925;51.356;9.530;2023-04-24T13:33:18;0.70;;;0.50;;
3819;SDS011;1925;51.356;9.530;2023-04-24T13:35:44;0.70;;;0.50;;
3819;SDS011;1925;51.356;9.530;2023-04-24T13:38:10;0.70;;;0.60;;
3819;SDS011;1925;51.356;9.530;2023-04-24T13:40:36;0.70;;;0.50;;
3819;SDS011;1925;51.356;9.530;2023-04-24T13:43:02;0.68;;;0.40;;
3819;SDS011;1925;51.356;9.530;2023-04-24T13:45:28;0.70;;;0.50;;
3819;SDS011;1925;51.356;9.530;2023-04-24T13:47:54;0.80;;;0.55;;
3819;SDS011;1925;51.356;9.530;2023-04-24T13:50:21;0.60;;;0.50;;
3819;SDS011;1925;51.356;9.530;2023-04-24T13:52:47;1.20;;;0.57;;
3819;SDS011;1925;51.356;9.530;2023-04-24T13:55:14;0.80;;;0.50;;
3819;SDS011;1925;51.356;9.530;2023-04-24T13:57:40;0.70;;;0.50;;
3819;SDS011;1925;51.356;9.530;2023-04-24T14:00:06;1.77;;;0.50;;
3819;SDS011;1925;51.356;9.530;2023-04-24T14:02:35;1.77;;;0.70;;
3819;SDS011;1925;51.356;9.530;2023-04-24T14:05:01;0.80;;;0.60;;
3819;SDS011;1925;51.356;9.530;2023-04-24T14:07:28;0.90;;;0.70;;
3819;SDS011;1925;51.356;9.530;2023-04-24T14:09:54;0.70;;;0.60;;
3819;SDS011;1925;51.356;9.530;2023-04-24T14:12:20;1.00;;;0.63;;
3819;SDS011;1925;51.356;9.530;2023-04-24T14:14:46;1.15;;;0.82;;
3819;SDS011;1925;51.356;9.530;2023-04-24T14:17:13;1.33;;;0.70;;
3819;SDS011;1925;51.356;9.530;2023-04-24T14:19:39;0.80;;;0.70;;
3819;SDS011;1925;51.356;9.530;2023-04-24T14:22:05;0.70;;;0.60;;
3819;SDS011;1925;51.356;9.530;2023-04-24T14:24:31;2.75;;;0.80;;
3819;SDS011;1925;51.356;9.530;2023-04-24T14:26:57;0.80;;;0.80;;
3819;SDS011;1925;51.356;9.530;2023-04-24T14:29:23;1.00;;;0.90;;
3819;SDS011;1925;51.356;9.530;2023-04-24T14:31:50;0.85;;;0.85;;
3819;SDS011;1925;51.356;9.530;2023-04-24T14:34:16;2.00;;;0.90;;
3819;SDS011;1925;51.356;9.530;2023-04-24T14:36:43;0.90;;;0.70;;
3819;SDS011;1925;51.356;9.530;2023-04-24T14:39:09;1.10;;;1.00;;
3819;SDS011;1925;51.356;9.530;2023-04-24T14:41:35;2.15;;;1.15;;
3819;SDS011;1925;51.356;9.530;2023-04-24T14:44:02;1.20;;;1.00;;
3819;SDS011;1925;51.356;9.530;2023-04-24T14:46:29;2.55;;;1.30;;
3819;SDS011;1925;51.356;9.530;2023-04-24T14:48:57;1.50;;;1.25;;
3819;SDS011;1925;51.356;9.530;2023-04-24T14:51:23;1.47;;;1.37;;
3819;SDS011;1925;51.356;9.530;2023-04-24T14:53:50;1.55;;;1.45;;
3819;SDS011;1925;51.356;9.530;2023-04-24T14:56:16;3.33;;;1.90;;
3819;SDS011;1925;51.356;9.530;2023-04-24T14:58:42;2.65;;;1.50;;
3819;SDS011;1925;51.356;9.530;2023-04-24T15:01:08;3.00;;;2.00;;
3819;SDS011;1925;51.356;9.530;2023-04-24T15:03:34;3.78;;;2.20;;
3819;SDS011;1925;51.356;9.530;2023-04-24T15:06:00;5.15;;;2.65;;
3819;SDS011;1925;51.356;9.530;2023-04-24T15:08:26;4.13;;;2.00;;
3819;SDS011;1925;51.356;9.530;2023-04-24T15:10:52;3.00;;;2.00;;
3819;SDS011;1925;51.356;9.530;2023-04-24T15:13:18;2.63;;;2.15;;
3819;SDS011;1925;51.356;9.530;2023-04-24T15:15:45;2.47;;;1.83;;
3819;SDS011;1925;51.356;9.530;2023-04-24T15:18:12;3.38;;;2.10;;
3819;SDS011;1925;51.356;9.530;2023-04-24T15:20:38;3.30;;;2.10;;
3819;SDS011;1925;51.356;9.530;2023-04-24T15:23:05;4.55;;;2.00;;
3819;SDS011;1925;51.356;9.530;2023-04-24T15:25:31;3.65;;;2.05;;